createdAt,value
2023-05-22T00:00:16.740Z,2.08
2023-05-22T00:02:43.987Z,1.90
2023-05-22T00:05:14.913Z,1.95
2023-05-22T00:07:43.269Z,1.85
2023-05-22T00:10:10.915Z,2.10
2023-05-22T00:12:38.057Z,2.00
2023-05-22T00:15:06.095Z,2.10
2023-05-22T00:17:34.249Z,2.22
2023-05-22T00:20:07.331Z,2.00
2023-05-22T00:22:37.828Z,1.90
2023-05-22T00:25:05.593Z,2.15
2023-05-22T00:27:33.532Z,1.90
2023-05-22T00:30:01.157Z,2.20
2023-05-22T00:32:28.111Z,2.30
2023-05-22T00:34:55.011Z,2.10
2023-05-22T00:37:21.825Z,2.30
2023-05-22T00:39:49.149Z,2.50
2023-05-22T00:42:16.017Z,2.08
2023-05-22T00:44:42.954Z,2.35
2023-05-22T00:47:10.193Z,2.20
2023-05-22T00:49:37.025Z,2.30
2023-05-22T00:52:04.093Z,2.30
2023-05-22T00:54:32.068Z,2.35
2023-05-22T00:57:00.664Z,2.15
2023-05-22T00:59:29.036Z,2.25
2023-05-22T01:01:57.290Z,2.33
2023-05-22T01:04:25.443Z,2.28
2023-05-22T01:06:53.730Z,2.20
2023-05-22T01:09:20.712Z,2.20
2023-05-22T01:12:14.640Z,2.30
2023-05-22T01:14:53.828Z,2.10
2023-05-22T01:17:46.507Z,2.33
2023-05-22T01:20:38.170Z,2.25
2023-05-22T01:23:31.467Z,1.90
2023-05-22T01:26:19.359Z,2.00
2023-05-22T01:29:09.172Z,2.25
2023-05-22T01:31:39.982Z,2.10
2023-05-22T01:34:10.603Z,2.25
2023-05-22T01:36:41.586Z,2.00
2023-05-22T01:39:09.065Z,2.00
2023-05-22T01:41:36.295Z,2.10
2023-05-22T01:44:03.763Z,2.17
2023-05-22T01:46:31.528Z,2.20
2023-05-22T01:48:59.526Z,2.30
2023-05-22T01:51:45.623Z,2.35
2023-05-22T01:54:30.658Z,2.20
2023-05-22T01:57:17.935Z,2.30
2023-05-22T01:59:46.045Z,2.10
2023-05-22T02:02:17.838Z,2.20
2023-05-22T02:04:49.807Z,2.17
2023-05-22T02:07:19.612Z,2.17
2023-05-22T02:09:49.062Z,2.20
2023-05-22T02:12:16.329Z,2.38
2023-05-22T02:14:43.882Z,2.40
2023-05-22T02:17:10.744Z,2.22
2023-05-22T02:19:38.025Z,2.20
2023-05-22T02:22:05.823Z,2.40
2023-05-22T02:24:36.999Z,2.20
2023-05-22T02:27:04.342Z,2.25
2023-05-22T02:29:31.338Z,2.40
2023-05-22T02:31:58.673Z,2.20
2023-05-22T02:34:27.015Z,2.45
2023-05-22T02:36:53.907Z,2.30
2023-05-22T02:39:20.647Z,2.63
2023-05-22T02:41:47.719Z,2.00
2023-05-22T02:44:14.725Z,2.10
2023-05-22T02:46:43.080Z,2.20
2023-05-22T02:49:10.113Z,2.28
2023-05-22T02:51:37.287Z,2.38
2023-05-22T02:54:04.155Z,2.30
2023-05-22T02:56:31.260Z,2.40
2023-05-22T02:58:58.163Z,2.20
2023-05-22T03:01:26.626Z,2.20
2023-05-22T03:03:55.092Z,2.50
2023-05-22T03:06:23.287Z,2.25
2023-05-22T03:08:50.838Z,2.47
2023-05-22T03:11:17.656Z,2.40
2023-05-22T03:13:44.842Z,2.40
2023-05-22T03:16:11.671Z,2.28
2023-05-22T03:18:43.152Z,2.20
2023-05-22T03:21:10.032Z,2.60
2023-05-22T03:23:36.828Z,2.60
2023-05-22T03:26:03.911Z,2.25
2023-05-22T03:28:34.469Z,2.50
2023-05-22T03:31:01.266Z,2.80
2023-05-22T03:33:35.216Z,2.53
2023-05-22T03:36:03.697Z,2.58
2023-05-22T03:38:30.782Z,2.50
2023-05-22T03:40:57.674Z,2.30
2023-05-22T03:43:24.548Z,2.40
2023-05-22T03:45:51.539Z,2.45
2023-05-22T03:48:18.434Z,2.30
2023-05-22T03:50:46.318Z,2.05
2023-05-22T03:53:13.151Z,2.10
2023-05-22T03:55:39.949Z,2.00
2023-05-22T03:58:07.056Z,2.40
2023-05-22T04:00:34.903Z,2.60
2023-05-22T04:03:02.260Z,2.50
2023-05-22T04:05:30.377Z,2.30
2023-05-22T04:07:57.726Z,2.30
2023-05-22T04:10:24.634Z,2.50
2023-05-22T04:12:51.646Z,2.35
2023-05-22T04:15:18.429Z,2.40
2023-05-22T04:17:45.472Z,2.50
2023-05-22T04:20:12.664Z,2.47
2023-05-22T04:22:39.541Z,2.30
2023-05-22T04:25:07.010Z,2.53
2023-05-22T04:27:34.506Z,2.30
2023-05-22T04:30:03.059Z,2.00
2023-05-22T04:32:30.167Z,1.98
2023-05-22T04:34:58.437Z,1.80
2023-05-22T04:37:26.563Z,2.03
2023-05-22T04:39:58.280Z,2.10
2023-05-22T04:42:25.503Z,2.20
2023-05-22T04:44:58.041Z,2.10
2023-05-22T04:47:24.927Z,1.90
2023-05-22T04:49:51.819Z,2.20
2023-05-22T04:52:18.742Z,2.40
2023-05-22T04:54:46.927Z,2.40
2023-05-22T04:57:14.231Z,2.00
2023-05-22T04:59:41.530Z,2.20
2023-05-22T05:02:09.692Z,2.30
2023-05-22T05:04:37.447Z,1.90
2023-05-22T05:07:06.164Z,2.00
2023-05-22T05:09:33.570Z,2.00
2023-05-22T05:12:02.799Z,1.80
2023-05-22T05:14:30.599Z,2.10
2023-05-22T05:16:58.916Z,2.03
2023-05-22T05:19:26.437Z,2.08
2023-05-22T05:21:53.678Z,1.90
2023-05-22T05:24:22.840Z,1.90
2023-05-22T05:26:51.215Z,2.05
2023-05-22T05:29:19.818Z,1.80
2023-05-22T05:31:58.629Z,1.90
2023-05-22T05:34:40.509Z,2.10
2023-05-22T05:37:19.958Z,1.63
2023-05-22T05:39:47.539Z,1.50
2023-05-22T05:42:15.106Z,1.50
2023-05-22T05:44:42.408Z,1.45
2023-05-22T05:47:09.277Z,1.35
2023-05-22T05:49:36.419Z,1.48
2023-05-22T05:52:05.282Z,1.90
2023-05-22T05:54:35.056Z,1.80
2023-05-22T05:57:06.722Z,2.08
2023-05-22T05:59:33.512Z,2.05
2023-05-22T06:02:39.568Z,1.90
2023-05-22T06:05:12.382Z,2.00
2023-05-22T06:07:40.795Z,2.00
2023-05-22T06:10:12.997Z,2.13
2023-05-22T06:12:49.941Z,2.10
2023-05-22T06:15:16.930Z,3.03
2023-05-22T06:17:43.882Z,3.10
2023-05-22T06:20:11.131Z,3.20
2023-05-22T06:22:37.949Z,4.75
2023-05-22T06:25:05.446Z,4.53
2023-05-22T06:27:33.941Z,4.80
2023-05-22T06:30:03.729Z,5.97
2023-05-22T06:32:35.749Z,8.20
2023-05-22T06:35:03.349Z,8.43
2023-05-22T06:37:33.094Z,8.75
2023-05-22T06:40:01.331Z,9.00
2023-05-22T06:42:38.543Z,10.38
2023-05-22T06:45:23.942Z,10.40
2023-05-22T06:48:11.940Z,13.18
2023-05-22T06:50:48.946Z,12.32
2023-05-22T06:53:15.935Z,9.75
2023-05-22T06:55:43.094Z,9.95
2023-05-22T06:58:18.743Z,10.30
2023-05-22T07:00:45.905Z,9.10
2023-05-22T07:03:21.391Z,5.80
2023-05-22T07:06:18.260Z,4.80
2023-05-22T07:08:45.316Z,4.78
2023-05-22T07:11:12.263Z,4.20
2023-05-22T07:13:39.876Z,5.07
2023-05-22T07:16:07.502Z,9.13
2023-05-22T07:18:35.424Z,8.88
2023-05-22T07:21:02.649Z,9.75
2023-05-22T07:23:29.979Z,8.30
2023-05-22T07:25:57.202Z,7.38
2023-05-22T07:28:30.094Z,5.13
2023-05-22T07:31:10.394Z,3.90
2023-05-22T07:33:37.444Z,3.33
2023-05-22T07:36:04.831Z,3.13
2023-05-22T07:38:32.059Z,3.10
2023-05-22T07:41:04.946Z,2.58
2023-05-22T07:43:33.630Z,3.53
2023-05-22T07:46:00.750Z,2.92
2023-05-22T07:48:33.668Z,3.10
2023-05-22T07:51:00.591Z,3.17
2023-05-22T07:53:27.387Z,2.97
2023-05-22T07:55:57.403Z,3.10
2023-05-22T07:58:25.165Z,3.60
2023-05-22T08:00:52.897Z,3.55
2023-05-22T08:03:21.052Z,3.90
2023-05-22T08:05:50.274Z,3.63
2023-05-22T08:08:17.183Z,3.40
2023-05-22T08:11:01.818Z,2.92
2023-05-22T08:13:30.660Z,3.20
2023-05-22T08:16:00.393Z,2.67
2023-05-22T08:18:29.455Z,2.63
2023-05-22T08:20:56.902Z,2.85
2023-05-22T08:23:24.230Z,2.50
2023-05-22T08:25:51.005Z,2.70
2023-05-22T08:28:17.964Z,2.38
2023-05-22T08:30:45.022Z,2.17
2023-05-22T08:33:12.546Z,2.10
2023-05-22T08:35:39.747Z,1.90
2023-05-22T08:38:06.554Z,1.88
2023-05-22T08:40:38.341Z,1.60
2023-05-22T08:43:06.507Z,1.60
2023-05-22T08:45:34.317Z,1.20
2023-05-22T08:48:06.263Z,1.30
2023-05-22T08:50:38.529Z,1.20
2023-05-22T08:53:08.236Z,1.20
2023-05-22T08:55:35.609Z,1.15
2023-05-22T08:58:04.360Z,1.10
2023-05-22T09:00:31.761Z,0.95
2023-05-22T09:02:59.711Z,1.20
2023-05-22T09:05:27.247Z,0.95
2023-05-22T09:07:56.642Z,0.90
2023-05-22T09:10:25.951Z,0.82
2023-05-22T09:13:07.905Z,1.00
2023-05-22T09:15:36.820Z,1.02
2023-05-22T09:18:05.503Z,1.00
2023-05-22T09:20:38.024Z,0.88
2023-05-22T09:23:17.755Z,1.00
2023-05-22T09:25:45.099Z,1.00
2023-05-22T09:28:12.653Z,0.80
2023-05-22T09:30:40.360Z,0.90
2023-05-22T09:33:08.860Z,0.80
2023-05-22T09:35:39.591Z,1.00
2023-05-22T09:38:06.650Z,0.77
2023-05-22T09:40:35.037Z,0.80
2023-05-22T09:43:07.348Z,1.00
2023-05-22T09:45:38.371Z,0.90
2023-05-22T09:48:06.767Z,0.80
2023-05-22T09:50:33.669Z,0.90
2023-05-22T09:53:05.071Z,0.90
2023-05-22T09:55:32.369Z,0.90
2023-05-22T09:58:03.363Z,0.98
2023-05-22T10:00:33.056Z,0.80
2023-05-22T10:03:12.136Z,0.82
2023-05-22T10:05:43.799Z,1.00
2023-05-22T10:08:14.612Z,1.10
2023-05-22T10:10:45.846Z,0.95
2023-05-22T10:13:13.232Z,1.00
2023-05-22T10:15:41.109Z,0.80
2023-05-22T10:18:08.555Z,0.90
2023-05-22T10:20:36.058Z,0.80
2023-05-22T10:23:04.061Z,0.80
2023-05-22T10:25:30.978Z,0.90
2023-05-22T10:27:59.620Z,0.70
2023-05-22T10:30:34.926Z,0.80
2023-05-22T10:33:45.012Z,0.80
2023-05-22T10:36:26.097Z,0.90
2023-05-22T10:38:55.784Z,1.05
2023-05-22T10:41:23.592Z,0.80
2023-05-22T10:43:51.282Z,1.05
2023-05-22T10:46:18.809Z,0.70
2023-05-22T10:48:47.912Z,0.80
2023-05-22T10:51:25.092Z,0.80
2023-05-22T10:53:56.985Z,0.70
2023-05-22T10:56:25.493Z,0.80
2023-05-22T10:58:57.558Z,0.90
2023-05-22T11:01:27.619Z,0.90
2023-05-22T11:04:06.871Z,0.98
2023-05-22T11:07:04.604Z,0.90
2023-05-22T11:09:50.305Z,0.90
2023-05-22T11:12:20.980Z,1.00
2023-05-22T11:15:07.685Z,0.80
2023-05-22T11:17:50.255Z,0.90
2023-05-22T11:20:28.341Z,0.85
2023-05-22T11:23:05.868Z,0.80
2023-05-22T11:25:39.503Z,1.00
2023-05-22T11:28:07.389Z,0.80
2023-05-22T11:30:34.790Z,0.90
2023-05-22T11:33:02.371Z,0.80
2023-05-22T11:35:29.688Z,0.90
2023-05-22T11:37:57.050Z,0.80
2023-05-22T11:40:27.184Z,0.80
2023-05-22T11:42:54.431Z,1.00
2023-05-22T11:45:21.855Z,0.80
2023-05-22T11:47:49.242Z,0.80
2023-05-22T11:50:22.617Z,0.90
2023-05-22T11:52:50.140Z,0.80
2023-05-22T11:55:17.642Z,0.98
2023-05-22T11:57:44.836Z,0.82
2023-05-22T12:00:12.241Z,0.90
2023-05-22T12:02:44.516Z,0.93
2023-05-22T12:05:12.002Z,1.00
2023-05-22T12:07:39.069Z,0.90
2023-05-22T12:10:07.438Z,1.00
2023-05-22T12:12:34.459Z,1.00
2023-05-22T12:15:01.491Z,1.00
2023-05-22T12:17:28.796Z,1.10
2023-05-22T12:19:55.590Z,0.98
2023-05-22T12:22:26.283Z,1.10
2023-05-22T12:24:53.190Z,1.10
2023-05-22T12:27:20.192Z,1.20
2023-05-22T12:29:47.056Z,1.48
2023-05-22T12:32:14.099Z,1.30
2023-05-22T12:34:47.557Z,1.38
2023-05-22T12:37:28.544Z,1.15
2023-05-22T12:40:00.321Z,1.30
2023-05-22T12:42:28.472Z,1.15
2023-05-22T12:44:57.195Z,1.30
2023-05-22T12:47:24.955Z,1.17
2023-05-22T12:49:52.492Z,1.10
2023-05-22T12:52:19.672Z,1.20
2023-05-22T12:54:46.583Z,1.08
2023-05-22T12:57:13.506Z,1.10
2023-05-22T12:59:40.725Z,1.10
2023-05-22T13:02:07.970Z,0.90
2023-05-22T13:04:35.261Z,1.13
2023-05-22T13:07:02.245Z,1.30
2023-05-22T13:09:29.077Z,1.30
2023-05-22T13:11:56.785Z,1.15
2023-05-22T13:14:23.803Z,1.10
2023-05-22T13:16:50.656Z,1.20
2023-05-22T13:19:17.487Z,1.00
2023-05-22T13:21:44.484Z,1.20
2023-05-22T13:24:11.401Z,1.00
2023-05-22T13:26:38.445Z,1.02
2023-05-22T13:29:05.308Z,1.00
2023-05-22T13:31:37.471Z,1.10
2023-05-22T13:34:05.157Z,1.02
2023-05-22T13:36:32.343Z,1.55
2023-05-22T13:38:59.284Z,1.20
2023-05-22T13:41:27.000Z,1.30
2023-05-22T13:43:54.111Z,1.20
2023-05-22T13:46:22.464Z,1.20
2023-05-22T13:48:49.576Z,1.05
2023-05-22T13:51:16.447Z,1.10
2023-05-22T13:53:43.471Z,1.10
2023-05-22T13:56:11.105Z,1.20
2023-05-22T13:58:38.308Z,1.20
2023-05-22T14:01:05.415Z,1.10
2023-05-22T14:03:32.293Z,1.10
2023-05-22T14:05:59.156Z,1.20
2023-05-22T14:08:26.276Z,1.20
2023-05-22T14:10:53.260Z,1.17
2023-05-22T14:13:20.435Z,1.00
2023-05-22T14:15:48.404Z,1.30
2023-05-22T14:18:16.722Z,1.20
2023-05-22T14:20:44.862Z,1.10
2023-05-22T14:23:12.849Z,1.40
2023-05-22T14:25:42.983Z,1.38
2023-05-22T14:28:10.945Z,1.80
2023-05-22T14:30:38.116Z,1.42
2023-05-22T14:33:05.533Z,1.50
2023-05-22T14:35:32.522Z,1.13
2023-05-22T14:37:59.300Z,1.30
2023-05-22T14:40:26.077Z,1.30
2023-05-22T14:42:54.293Z,1.30
2023-05-22T14:45:21.492Z,1.30
2023-05-22T14:47:48.413Z,1.40
2023-05-22T14:50:19.712Z,1.38
2023-05-22T14:52:48.888Z,1.50
2023-05-22T14:55:18.619Z,1.67
2023-05-22T14:57:45.502Z,1.80
2023-05-22T15:00:15.233Z,1.30
2023-05-22T15:05:09.799Z,1.20
2023-05-22T15:12:37.633Z,1.17
2023-05-22T15:15:08.327Z,1.10
2023-05-22T15:17:35.311Z,0.98
2023-05-22T15:20:02.175Z,1.00
2023-05-22T15:22:29.002Z,1.40
2023-05-22T15:25:12.225Z,1.33
2023-05-22T15:27:39.703Z,1.25
2023-05-22T15:30:09.601Z,1.10
2023-05-22T15:32:37.399Z,1.20
2023-05-22T15:35:05.732Z,1.27
2023-05-22T15:37:33.876Z,1.30
2023-05-22T15:40:02.107Z,1.50
2023-05-22T15:42:29.111Z,1.48
2023-05-22T15:44:58.636Z,1.67
2023-05-22T15:47:25.477Z,1.33
2023-05-22T15:49:52.686Z,1.50
2023-05-22T15:52:21.033Z,1.60
2023-05-22T15:54:47.832Z,1.40
2023-05-22T15:57:14.719Z,1.30
2023-05-22T15:59:41.712Z,1.38
2023-05-22T16:02:08.564Z,1.25
2023-05-22T16:04:35.560Z,1.38
2023-05-22T16:07:02.457Z,1.23
2023-05-22T16:09:31.365Z,1.30
2023-05-22T16:12:02.541Z,1.25
2023-05-22T16:14:30.133Z,1.10
2023-05-22T16:16:56.931Z,1.25
2023-05-22T16:19:24.191Z,1.30
2023-05-22T16:24:20.287Z,1.30
2023-05-22T16:26:47.166Z,1.20
2023-05-22T16:29:14.159Z,1.40
2023-05-22T16:31:42.250Z,1.40
2023-05-22T16:34:09.022Z,1.70
2023-05-22T16:36:36.106Z,1.40
2023-05-22T16:39:03.428Z,1.50
2023-05-22T16:41:30.459Z,1.17
2023-05-22T16:43:57.438Z,1.23
2023-05-22T16:46:24.521Z,1.35
2023-05-22T16:48:51.870Z,1.30
2023-05-22T16:51:18.727Z,1.30
2023-05-22T16:53:46.800Z,1.40
2023-05-22T16:56:14.563Z,1.40
2023-05-22T16:58:41.393Z,1.40
2023-05-22T17:01:08.791Z,1.30
2023-05-22T17:03:36.060Z,1.40
2023-05-22T17:06:03.272Z,1.38
2023-05-22T17:08:30.211Z,1.45
2023-05-22T17:10:57.066Z,1.60
2023-05-22T17:13:23.918Z,1.20
2023-05-22T17:15:51.452Z,1.38
2023-05-22T17:18:20.806Z,1.20
2023-05-22T17:20:49.383Z,1.25
2023-05-22T17:23:16.886Z,1.30
2023-05-22T17:25:46.517Z,1.30
2023-05-22T17:30:42.759Z,1.50
2023-05-22T17:33:11.004Z,1.40
2023-05-22T17:35:38.056Z,1.50
2023-05-22T17:38:04.930Z,1.70
2023-05-22T17:40:44.111Z,1.52
2023-05-22T17:43:13.359Z,1.45
2023-05-22T17:45:40.378Z,1.70
2023-05-22T17:48:08.168Z,1.70
2023-05-22T17:50:35.394Z,1.70
2023-05-22T17:53:02.284Z,1.75
2023-05-22T17:55:29.195Z,1.70
2023-05-22T17:57:56.352Z,1.40
2023-05-22T18:00:23.539Z,1.70
2023-05-22T18:02:50.722Z,1.67
2023-05-22T18:05:17.814Z,1.90
2023-05-22T18:07:44.649Z,1.60
2023-05-22T18:10:11.735Z,1.60
2023-05-22T18:12:38.771Z,3.03
2023-05-22T18:15:08.623Z,2.10
2023-05-22T18:20:03.884Z,2.15
2023-05-22T18:22:31.095Z,1.90
2023-05-22T18:24:58.055Z,2.30
2023-05-22T18:27:25.609Z,2.38
2023-05-22T18:29:52.513Z,2.13
2023-05-22T18:32:19.334Z,2.00
2023-05-22T18:34:46.586Z,2.13
2023-05-22T18:37:14.038Z,2.88
2023-05-22T18:39:41.065Z,2.70
2023-05-22T18:42:08.126Z,2.33
2023-05-22T18:44:35.140Z,2.35
2023-05-22T18:47:02.222Z,2.47
2023-05-22T18:49:29.136Z,2.83
2023-05-22T18:51:55.982Z,2.50
2023-05-22T18:54:23.081Z,2.03
2023-05-22T18:56:50.758Z,2.63
2023-05-22T18:59:17.598Z,2.40
2023-05-22T19:01:45.532Z,2.50
2023-05-22T19:04:12.441Z,2.40
2023-05-22T19:06:42.124Z,2.72
2023-05-22T19:09:12.659Z,2.50
2023-05-22T19:11:39.857Z,2.80
2023-05-22T19:14:06.991Z,2.63
2023-05-22T19:16:34.029Z,2.50
2023-05-22T19:19:01.068Z,2.67
2023-05-22T19:21:28.090Z,2.70
2023-05-22T19:23:54.910Z,2.35
2023-05-22T19:26:21.828Z,2.50
2023-05-22T19:28:48.601Z,2.67
2023-05-22T19:31:17.298Z,2.40
2023-05-22T19:33:44.778Z,2.50
2023-05-22T19:36:11.541Z,2.60
2023-05-22T19:38:38.411Z,2.40
2023-05-22T19:41:05.319Z,2.50
2023-05-22T19:43:32.251Z,2.30
2023-05-22T19:45:59.183Z,2.30
2023-05-22T19:48:26.991Z,2.40
2023-05-22T19:50:54.103Z,2.30
2023-05-22T19:53:21.297Z,2.30
2023-05-22T19:55:48.809Z,2.58
2023-05-22T19:58:15.653Z,2.30
2023-05-22T20:00:42.841Z,2.53
2023-05-22T20:03:09.988Z,2.22
2023-05-22T20:05:37.200Z,2.30
2023-05-22T20:08:04.149Z,2.33
2023-05-22T20:10:32.332Z,6.90
2023-05-22T20:13:00.328Z,2.35
2023-05-22T20:15:27.394Z,2.22
2023-05-22T20:17:54.477Z,2.03
2023-05-22T20:20:23.953Z,2.10
2023-05-22T20:22:52.838Z,2.00
2023-05-22T20:25:21.342Z,2.05
2023-05-22T20:27:48.123Z,2.50
2023-05-22T20:30:15.796Z,2.40
2023-05-22T20:32:45.521Z,2.00
2023-05-22T20:35:13.121Z,2.30
2023-05-22T20:37:41.639Z,1.95
2023-05-22T20:40:09.645Z,2.10
2023-05-22T20:42:37.677Z,2.00
2023-05-22T20:45:08.267Z,2.42
2023-05-22T20:47:36.168Z,2.20
2023-05-22T20:50:03.061Z,2.10
2023-05-22T20:52:30.480Z,2.28
2023-05-22T20:54:58.312Z,2.25
2023-05-22T20:57:25.610Z,2.08
2023-05-22T20:59:54.231Z,2.10
2023-05-22T21:02:21.143Z,2.28
2023-05-22T21:09:19.055Z,1.92
2023-05-22T21:11:45.967Z,1.80
2023-05-22T21:14:12.858Z,2.00
2023-05-22T21:16:40.313Z,1.98
2023-05-22T21:19:07.627Z,1.90
2023-05-22T21:21:36.220Z,1.90
2023-05-22T21:24:03.349Z,1.88
2023-05-22T21:26:30.374Z,1.83
2023-05-22T21:28:57.354Z,1.75
2023-05-22T21:31:24.184Z,1.70
2023-05-22T21:33:51.139Z,1.90
2023-05-22T21:36:17.944Z,1.80
2023-05-22T21:38:45.379Z,1.75
2023-05-22T21:41:13.293Z,1.55
2023-05-22T21:43:40.318Z,1.70
2023-05-22T21:46:07.380Z,1.75
2023-05-22T21:48:34.215Z,1.77
2023-05-22T21:51:01.093Z,1.52
2023-05-22T21:53:28.044Z,1.70
2023-05-22T21:55:54.993Z,1.60
2023-05-22T21:58:22.056Z,1.50
2023-05-22T22:00:48.853Z,1.90
2023-05-22T22:03:15.872Z,1.33
2023-05-22T22:05:42.882Z,1.63
2023-05-22T22:08:09.958Z,1.67
2023-05-22T22:10:36.899Z,1.45
2023-05-22T22:13:03.761Z,1.67
2023-05-22T22:15:32.140Z,1.60
2023-05-22T22:18:02.231Z,1.50
2023-05-22T22:20:44.071Z,1.50
2023-05-22T22:23:12.725Z,1.63
2023-05-22T22:25:39.735Z,1.52
2023-05-22T22:28:07.404Z,1.35
2023-05-22T22:30:35.554Z,1.42
2023-05-22T22:33:02.618Z,1.50
2023-05-22T22:35:29.602Z,1.35
2023-05-22T22:37:56.546Z,1.35
2023-05-22T22:40:25.325Z,1.40
2023-05-22T22:45:20.312Z,1.40
2023-05-22T22:47:47.461Z,1.38
2023-05-22T22:50:14.350Z,1.30
2023-05-22T22:52:45.533Z,1.40
2023-05-22T22:55:13.465Z,1.40
2023-05-22T22:57:43.331Z,1.35
2023-05-22T23:00:13.415Z,1.40
2023-05-22T23:02:40.733Z,1.40
2023-05-22T23:05:08.264Z,1.50
2023-05-22T23:07:35.736Z,1.27
2023-05-22T23:10:02.674Z,1.42
2023-05-22T23:12:29.589Z,1.50
2023-05-22T23:14:56.558Z,1.58
2023-05-22T23:17:23.277Z,1.40
2023-05-22T23:19:50.045Z,1.42
2023-05-22T23:22:18.943Z,1.45
2023-05-22T23:24:45.906Z,1.70
2023-05-22T23:27:12.787Z,1.38
2023-05-22T23:29:40.521Z,1.45
2023-05-22T23:32:07.451Z,1.50
2023-05-22T23:34:34.387Z,1.50
2023-05-22T23:37:01.287Z,1.40
2023-05-22T23:39:28.090Z,1.50
2023-05-22T23:41:54.901Z,1.38
2023-05-22T23:44:21.856Z,1.50
2023-05-22T23:46:50.141Z,1.60
2023-05-22T23:49:16.920Z,1.67
2023-05-22T23:51:43.689Z,1.50
2023-05-22T23:54:11.297Z,1.33
2023-05-22T23:56:38.098Z,1.48
2023-05-22T23:59:04.842Z,1.60
